METAR Data
IDs: Format: Raw Decoded Include TAF

Data at: 2202 UTC 24 Mar 2019

KTKI 242153Z 14014KT 10SM FEW049 SCT060 26/17 A2994 RMK AO2 LTG DSNT NW SLP137 T02560167
KTKI 242053Z 18011KT 10SM FEW046 BKN055 BKN070 26/16 A2996 RMK AO2 SLP144 T02610161 56017
KTKI 241953Z 18014G19KT 10SM SCT044 26/16 A2997 RMK AO2 SLP147 T02610156
KTKI 241853Z 21012G17KT 10SM SCT036 26/17 A2999 RMK AO2 SLP155 T02560167
KTKI 241800Z 20016KT 10SM BKN032 25/17 A3002 RMK AO2 T02500167
KTKI 241753Z 19016G21KT 10SM BKN028 24/17 A3001 RMK AO2 SLP162 T02440167 10244 20167 58012
KTKI 241653Z 22018G21KT 10SM BKN028 23/16 A3005 RMK AO2 SLP173 T02330161
KTKI 241553Z 19010KT 10SM OVC018 21/17 A3005 RMK AO2 SLP176 T02110167
KTKI 241523Z 19011KT 10SM OVC016 20/17 A3005 RMK AO2 T02000167
KTKI 241453Z 20012G21KT 10SM OVC012 19/17 A3005 RMK AO2 SLP176 T01940167 53010
KTKI 241353Z 19012KT 10SM OVC010 18/16 A3004 RMK AO2 SLP173 T01780161
KTKI 241253Z 18009KT 10SM BKN011 17/16 A3003 RMK AO2 SLP169 T01670156
KTKI 241153Z 18011KT 10SM OVC013 17/16 A3002 RMK AO2 SLP166 70005 T01720156 10183 20172 53003
KTKI 241053Z 19013KT 10SM OVC014 17/16 A3001 RMK AO2 SLP163 T01720156
KTKI 240953Z AUTO 18010KT 10SM OVC018 17/16 A3001 RMK AO2 SLP162 T01720156
KTKI 240853Z AUTO 17010KT 10SM OVC020 17/15 A3001 RMK AO2 SLP163 T01720150 58005
KTKI 240841Z AUTO 17011KT 10SM BKN021 17/15 A3001 RMK AO2 T01720150
KTKI 240753Z AUTO 18016KT 10SM SCT042 18/15 A3002 RMK AO2 SLP166 T01780150
KTKI 240653Z AUTO 18013KT 10SM BKN041 18/14 A3002 RMK AO2 SLP167 T01830144
KTKI 240553Z AUTO 18014KT 10SM OVC035 19/14 A3003 RMK AO2 SLP169 T01890139 10200 20189 402060128 53007
KTKI 240453Z AUTO 18015G23KT 10SM SCT031 OVC039 19/14 A3001 RMK AO2 SLP164 T01940139
KTKI 240353Z AUTO 17014KT 10SM OVC039 19/14 A3001 RMK AO2 SLP161 T01940139
KTKI 240253Z 17012KT 10SM OVC040 20/14 A3000 RMK AO2 SLP162 T02000144 53005
KTKI 240153Z 17008KT 10SM OVC035 20/14 A2999 RMK AO2 SLP158 T02000144
KTKI 240053Z 18012KT 10SM BKN036 OVC046 20/15 A2998 RMK AO2 SLP154 T02000150
KTKI 232353Z 16007KT 10SM OVC036 19/16 A2999 RMK AO2 RAB25E34 SLP157 P0000 60002 T01940156 10206 20178 53001
KTKI 232253Z 18012KT 10SM OVC034 19/16 A2998 RMK AO2 RAB2154E09B10E23 SLP154 P0000 T01940161
KTKI 232209Z 19012KT 10SM BKN030 OVC035 19/16 A2998 RMK AO2 RAB2154E09 P0000 T01940161
KTKI 232153Z 17019G23KT 9SM OVC029 20/16 A2998 RMK AO2 SLP155 T02000156
KTKI 232124Z 19014KT 10SM OVC029 21/15 A2998 RMK AO2 T02060150
KTKI 232110Z 19017G22KT 10SM OVC030 21/15 A2998 RMK AO2 T02060150
KTKI 232053Z 20016G23KT 10SM OVC028 21/16 A2998 RMK AO2 SLP155 60002 T02060156 56024
KTKI 231953Z 18018G25KT 10SM OVC028 20/16 A3000 RMK AO2 PK WND 19028/1937 SLP162 T02000156
KTKI 231941Z 19015G28KT 10SM BKN028 OVC034 20/16 A3000 RMK AO2 PK WND 19028/1937 T02000156
KTKI 231919Z 18016KT 10SM BKN030 OVC036 20/16 A3001 RMK AO2 T02000156
KTKI 231853Z 19012KT 10SM BKN028 OVC038 19/16 A3003 RMK AO2 RAB09E37 SLP171 P0002 T01940161
KTKI 231753Z 19009KT 10SM OVC037 18/15 A3006 RMK AO2 RAE21 SLP180 P0000 60003 T01780150 10200 20133 58007
KTKI 231653Z 19008KT 10SM -RA FEW029 BKN037 OVC050 18/15 A3008 RMK AO2 RAB07 SLP186 P0003 T01780150
KTKI 231634Z 19010KT 4SM RA SCT026 BKN030 OVC047 18/14 A3008 RMK AO2 RAB07 P0003 T01780144
KTKI 231613Z 19015G21KT 9SM -RA BKN026 BKN035 OVC090 19/14 A3007 RMK AO2 LTG DSNT N RAB07 P0000 T01890144
KTKI 231553Z 17014KT 10SM FEW026 SCT037 BKN100 19/13 A3007 RMK AO2 LTG DSNT NW SLP184 T01940133
KTKI 231453Z 17012KT 10SM BKN049 OVC060 17/11 A3008 RMK AO2 LTG DSNT N AND NW SLP187 T01670111 53012
KTKI 231353Z 16012KT 10SM BKN050 OVC085 16/09 A3006 RMK AO2 LTG DSNT N AND NW SLP183 T01560094
KTKI 231253Z 15010KT 10SM FEW075 OVC095 15/08 A3005 RMK AO2 SLP179 T01500083
KTKI 231153Z 16007KT 10SM OVC070 15/08 A3004 RMK AO2 SLP174 T01500083 10156 20128 53006
KTKI 231053Z 17010KT 10SM CLR 16/08 A3002 RMK AO2 SLP168 T01560083